sensor_id;sensor_type;location;lat;lon;timestamp;pressure;altitude;pressure_sealevel;temperature;humidity
17209;BME280;8720;48.488;9.202;2023-02-16T00:01:42;98061.91;;;7.16;51.92
17209;BME280;8720;48.488;9.202;2023-02-16T00:04:18;98059.31;;;7.18;52.00
17209;BME280;8720;48.488;9.202;2023-02-16T00:06:47;98063.63;;;7.17;52.16
17209;BME280;8720;48.488;9.202;2023-02-16T00:09:17;98064.53;;;7.21;52.02
17209;BME280;8720;48.488;9.202;2023-02-16T00:11:46;98065.41;;;7.23;52.35
17209;BME280;8720;48.488;9.202;2023-02-16T00:14:34;98066.25;;;7.23;52.64
17209;BME280;8720;48.488;9.202;2023-02-16T00:17:02;98059.34;;;7.27;52.65
17209;BME280;8720;48.488;9.202;2023-02-16T00:19:35;98048.09;;;7.31;52.77
17209;BME280;8720;48.488;9.202;2023-02-16T00:22:07;98049.88;;;7.40;52.74
17209;BME280;8720;48.488;9.202;2023-02-16T00:24:36;98032.53;;;7.45;53.01
17209;BME280;8720;48.488;9.202;2023-02-16T00:27:11;98029.13;;;7.52;52.96
17209;BME280;8720;48.488;9.202;2023-02-16T00:29:39;98029.16;;;7.61;52.96
17209;BME280;8720;48.488;9.202;2023-02-16T00:32:11;98016.16;;;7.67;53.15
17209;BME280;8720;48.488;9.202;2023-02-16T00:34:41;98026.59;;;7.74;53.17
17209;BME280;8720;48.488;9.202;2023-02-16T00:37:12;98021.38;;;7.77;53.07
17209;BME280;8720;48.488;9.202;2023-02-16T00:39:42;98016.19;;;7.79;53.04
17209;BME280;8720;48.488;9.202;2023-02-16T00:42:16;98027.50;;;7.91;53.06
17209;BME280;8720;48.488;9.202;2023-02-16T00:44:47;98028.38;;;7.92;52.79
17209;BME280;8720;48.488;9.202;2023-02-16T00:47:20;98017.09;;;7.99;52.94
17209;BME280;8720;48.488;9.202;2023-02-16T00:49:51;98019.72;;;8.02;53.04
17209;BME280;8720;48.488;9.202;2023-02-16T00:52:33;98022.34;;;8.02;52.88
17209;BME280;8720;48.488;9.202;2023-02-16T00:55:05;98023.19;;;8.02;52.86
17209;BME280;8720;48.488;9.202;2023-02-16T00:57:37;98030.16;;;8.02;52.61
17209;BME280;8720;48.488;9.202;2023-02-16T01:00:11;98029.25;;;7.97;52.50
17209;BME280;8720;48.488;9.202;2023-02-16T01:02:40;98026.66;;;7.95;52.33
17209;BME280;8720;48.488;9.202;2023-02-16T01:05:08;98033.59;;;7.90;52.33
17209;BME280;8720;48.488;9.202;2023-02-16T01:07:36;98030.97;;;7.84;52.48
17209;BME280;8720;48.488;9.202;2023-02-16T01:10:23;98027.47;;;7.75;52.25
17209;BME280;8720;48.488;9.202;2023-02-16T01:13:17;98038.72;;;7.65;52.42
17209;BME280;8720;48.488;9.202;2023-02-16T01:15:45;98033.47;;;7.59;52.50
17209;BME280;8720;48.488;9.202;2023-02-16T01:18:14;98033.44;;;7.54;52.36
17209;BME280;8720;48.488;9.202;2023-02-16T01:20:42;98031.69;;;7.49;52.00
17209;BME280;8720;48.488;9.202;2023-02-16T01:23:11;98036.03;;;7.44;52.38
17209;BME280;8720;48.488;9.202;2023-02-16T01:25:41;98031.66;;;7.40;52.33
17209;BME280;8720;48.488;9.202;2023-02-16T01:28:18;98031.66;;;7.37;52.26
17209;BME280;8720;48.488;9.202;2023-02-16T01:30:46;98033.38;;;7.34;52.29
17209;BME280;8720;48.488;9.202;2023-02-16T01:33:13;98019.50;;;7.32;52.39
17209;BME280;8720;48.488;9.202;2023-02-16T01:35:41;98021.19;;;7.24;52.40
17209;BME280;8720;48.488;9.202;2023-02-16T01:38:16;98025.50;;;7.25;52.39
17209;BME280;8720;48.488;9.202;2023-02-16T01:40:56;98022.91;;;7.24;52.52
17209;BME280;8720;48.488;9.202;2023-02-16T01:43:37;98019.44;;;7.20;52.45
17209;BME280;8720;48.488;9.202;2023-02-16T01:46:16;98018.53;;;7.18;52.68
17209;BME280;8720;48.488;9.202;2023-02-16T01:48:46;98011.59;;;7.17;52.50
17209;BME280;8720;48.488;9.202;2023-02-16T01:51:20;98021.16;;;7.17;52.63
17209;BME280;8720;48.488;9.202;2023-02-16T01:53:55;98022.00;;;7.14;52.61
17209;BME280;8720;48.488;9.202;2023-02-16T01:56:31;98018.50;;;7.12;52.53
17209;BME280;8720;48.488;9.202;2023-02-16T01:59:04;98015.03;;;7.10;52.47
17209;BME280;8720;48.488;9.202;2023-02-16T02:01:43;98017.63;;;7.09;52.54
17209;BME280;8720;48.488;9.202;2023-02-16T02:04:21;98017.59;;;7.06;52.29
17209;BME280;8720;48.488;9.202;2023-02-16T02:07:17;98010.63;;;6.97;52.66
17209;BME280;8720;48.488;9.202;2023-02-16T02:10:00;98008.00;;;6.94;52.49
17209;BME280;8720;48.488;9.202;2023-02-16T02:12:38;98019.25;;;6.92;52.49
17209;BME280;8720;48.488;9.202;2023-02-16T02:15:11;98008.81;;;6.89;52.59
17209;BME280;8720;48.488;9.202;2023-02-16T02:17:41;97998.41;;;6.86;52.59
17209;BME280;8720;48.488;9.202;2023-02-16T02:20:15;97995.81;;;6.84;52.72
17209;BME280;8720;48.488;9.202;2023-02-16T02:23:17;97999.22;;;6.77;52.54
17209;BME280;8720;48.488;9.202;2023-02-16T02:26:56;97984.41;;;6.67;52.80
17209;BME280;8720;48.488;9.202;2023-02-16T02:33:09;97973.06;;;6.55;52.77
17209;BME280;8720;48.488;9.202;2023-02-16T02:35:48;97966.16;;;6.54;52.68
17209;BME280;8720;48.488;9.202;2023-02-16T02:38:26;97968.75;;;6.54;52.56
17209;BME280;8720;48.488;9.202;2023-02-16T02:41:09;97973.06;;;6.53;52.70
17209;BME280;8720;48.488;9.202;2023-02-16T02:43:45;97971.25;;;6.46;52.87
17209;BME280;8720;48.488;9.202;2023-02-16T02:46:23;97984.25;;;6.46;52.91
17209;BME280;8720;48.488;9.202;2023-02-16T02:48:52;97990.28;;;6.40;52.88
17209;BME280;8720;48.488;9.202;2023-02-16T02:51:21;97986.78;;;6.35;52.91
17209;BME280;8720;48.488;9.202;2023-02-16T02:54:09;97992.81;;;6.30;53.03
17209;BME280;8720;48.488;9.202;2023-02-16T02:57:16;97999.72;;;6.26;53.14
17209;BME280;8720;48.488;9.202;2023-02-16T03:00:07;97999.69;;;6.23;52.77
17209;BME280;8720;48.488;9.202;2023-02-16T03:02:59;97995.31;;;6.18;52.84
17209;BME280;8720;48.488;9.202;2023-02-16T03:05:30;97997.06;;;6.19;52.91
17209;BME280;8720;48.488;9.202;2023-02-16T03:08:06;97996.19;;;6.17;52.76
17209;BME280;8720;48.488;9.202;2023-02-16T03:10:43;98003.91;;;6.14;52.89
17209;BME280;8720;48.488;9.202;2023-02-16T03:13:35;98004.75;;;6.08;52.81
17209;BME280;8720;48.488;9.202;2023-02-16T03:16:10;98003.84;;;6.05;52.85
17209;BME280;8720;48.488;9.202;2023-02-16T03:18:42;98001.19;;;6.00;52.93
17209;BME280;8720;48.488;9.202;2023-02-16T03:21:28;97997.72;;;5.97;52.77
17209;BME280;8720;48.488;9.202;2023-02-16T03:24:23;97999.38;;;5.90;53.11
17209;BME280;8720;48.488;9.202;2023-02-16T03:27:13;98006.25;;;5.85;52.95
17209;BME280;8720;48.488;9.202;2023-02-16T03:30:02;97982.78;;;5.81;52.95
17209;BME280;8720;48.488;9.202;2023-02-16T03:32:32;97979.34;;;5.80;53.41
17209;BME280;8720;48.488;9.202;2023-02-16T03:35:00;97987.13;;;5.80;53.14
17209;BME280;8720;48.488;9.202;2023-02-16T03:37:27;97987.97;;;5.81;53.23
17209;BME280;8720;48.488;9.202;2023-02-16T03:39:55;97979.34;;;5.82;53.32
17209;BME280;8720;48.488;9.202;2023-02-16T03:42:47;97968.88;;;5.73;53.75
17209;BME280;8720;48.488;9.202;2023-02-16T03:45:15;97984.59;;;5.85;53.54
17209;BME280;8720;48.488;9.202;2023-02-16T03:47:43;97979.47;;;5.89;53.54
17209;BME280;8720;48.488;9.202;2023-02-16T03:50:11;97989.88;;;5.92;53.51
17209;BME280;8720;48.488;9.202;2023-02-16T03:52:38;97982.06;;;5.92;53.47
17209;BME280;8720;48.488;9.202;2023-02-16T03:55:06;97985.50;;;5.88;53.60
17209;BME280;8720;48.488;9.202;2023-02-16T03:57:33;97995.94;;;5.94;53.50
17209;BME280;8720;48.488;9.202;2023-02-16T04:00:01;97999.44;;;5.96;53.74
17209;BME280;8720;48.488;9.202;2023-02-16T04:02:28;98002.91;;;5.98;53.57
17209;BME280;8720;48.488;9.202;2023-02-16T04:04:57;98008.09;;;6.00;53.48
17209;BME280;8720;48.488;9.202;2023-02-16T04:07:24;98015.06;;;6.01;53.68
17209;BME280;8720;48.488;9.202;2023-02-16T04:09:51;98010.75;;;6.03;53.55
17209;BME280;8720;48.488;9.202;2023-02-16T04:12:19;98018.56;;;6.04;53.59
17209;BME280;8720;48.488;9.202;2023-02-16T04:15:10;98026.34;;;6.03;53.65
17209;BME280;8720;48.488;9.202;2023-02-16T04:17:37;98027.22;;;6.05;53.62
17209;BME280;8720;48.488;9.202;2023-02-16T04:20:09;98015.13;;;6.05;53.32
17209;BME280;8720;48.488;9.202;2023-02-16T04:22:37;98025.41;;;5.96;53.71
17209;BME280;8720;48.488;9.202;2023-02-16T04:25:05;98027.16;;;5.97;53.58
17209;BME280;8720;48.488;9.202;2023-02-16T04:27:34;98034.94;;;5.96;53.82
17209;BME280;8720;48.488;9.202;2023-02-16T04:30:03;98033.13;;;5.90;53.64
17209;BME280;8720;48.488;9.202;2023-02-16T04:32:31;98024.41;;;5.84;53.50
17209;BME280;8720;48.488;9.202;2023-02-16T04:34:59;98030.50;;;5.87;53.42
17209;BME280;8720;48.488;9.202;2023-02-16T04:37:27;98021.00;;;5.88;53.45
17209;BME280;8720;48.488;9.202;2023-02-16T04:39:55;98020.94;;;5.85;53.41
17209;BME280;8720;48.488;9.202;2023-02-16T04:42:22;98026.97;;;5.82;53.47
17209;BME280;8720;48.488;9.202;2023-02-16T04:44:50;98027.81;;;5.81;53.57
17209;BME280;8720;48.488;9.202;2023-02-16T04:47:18;98019.97;;;5.77;53.80
17209;BME280;8720;48.488;9.202;2023-02-16T04:49:46;98021.66;;;5.75;53.66
17209;BME280;8720;48.488;9.202;2023-02-16T04:52:14;98017.34;;;5.74;53.80
17209;BME280;8720;48.488;9.202;2023-02-16T04:54:42;98014.72;;;5.72;53.79
17209;BME280;8720;48.488;9.202;2023-02-16T04:57:10;98022.53;;;5.74;53.79
17209;BME280;8720;48.488;9.202;2023-02-16T04:59:37;98016.47;;;5.75;53.85
17209;BME280;8720;48.488;9.202;2023-02-16T05:02:05;98013.03;;;5.76;53.89
17209;BME280;8720;48.488;9.202;2023-02-16T05:04:32;98013.94;;;5.78;53.84
17209;BME280;8720;48.488;9.202;2023-02-16T05:06:59;98014.75;;;5.77;53.77
17209;BME280;8720;48.488;9.202;2023-02-16T05:09:27;98013.03;;;5.74;53.80
17209;BME280;8720;48.488;9.202;2023-02-16T05:11:55;98015.66;;;5.79;54.06
17209;BME280;8720;48.488;9.202;2023-02-16T05:14:40;98010.44;;;5.76;54.18
17209;BME280;8720;48.488;9.202;2023-02-16T05:17:08;98012.16;;;5.77;53.88
17209;BME280;8720;48.488;9.202;2023-02-16T05:19:36;98009.56;;;5.77;53.98
17209;BME280;8720;48.488;9.202;2023-02-16T05:22:04;98016.53;;;5.78;54.11
17209;BME280;8720;48.488;9.202;2023-02-16T05:24:31;98019.13;;;5.78;54.07
17209;BME280;8720;48.488;9.202;2023-02-16T05:27:07;98026.03;;;5.79;54.16
17209;BME280;8720;48.488;9.202;2023-02-16T05:29:34;98028.63;;;5.79;54.01
17209;BME280;8720;48.488;9.202;2023-02-16T05:32:02;98013.84;;;5.69;54.14
17209;BME280;8720;48.488;9.202;2023-02-16T05:34:29;98034.69;;;5.78;54.12
17209;BME280;8720;48.488;9.202;2023-02-16T05:36:56;98038.16;;;5.78;54.15
17209;BME280;8720;48.488;9.202;2023-02-16T05:39:24;98039.00;;;5.79;54.10
17209;BME280;8720;48.488;9.202;2023-02-16T05:41:51;98036.41;;;5.79;54.20
17209;BME280;8720;48.488;9.202;2023-02-16T05:44:19;98037.28;;;5.78;54.25
17209;BME280;8720;48.488;9.202;2023-02-16T05:46:47;98045.97;;;5.78;53.80
17209;BME280;8720;48.488;9.202;2023-02-16T05:49:15;98052.88;;;5.78;53.91
17209;BME280;8720;48.488;9.202;2023-02-16T05:51:43;98056.31;;;5.77;53.97
17209;BME280;8720;48.488;9.202;2023-02-16T05:54:11;98056.28;;;5.74;53.89
17209;BME280;8720;48.488;9.202;2023-02-16T05:56:43;98059.69;;;5.70;53.94
17209;BME280;8720;48.488;9.202;2023-02-16T05:59:12;98056.19;;;5.65;54.04
17209;BME280;8720;48.488;9.202;2023-02-16T06:01:42;98054.41;;;5.59;54.12
17209;BME280;8720;48.488;9.202;2023-02-16T06:04:12;98058.66;;;5.55;53.96
17209;BME280;8720;48.488;9.202;2023-02-16T06:06:40;98057.75;;;5.53;53.92
17209;BME280;8720;48.488;9.202;2023-02-16T06:09:09;98062.03;;;5.50;54.08
17209;BME280;8720;48.488;9.202;2023-02-16T06:11:36;98057.72;;;5.47;54.04
17209;BME280;8720;48.488;9.202;2023-02-16T06:14:06;98050.75;;;5.43;54.30
17209;BME280;8720;48.488;9.202;2023-02-16T06:16:36;98059.34;;;5.41;54.20
17209;BME280;8720;48.488;9.202;2023-02-16T06:19:06;98054.13;;;5.38;54.50
17209;BME280;8720;48.488;9.202;2023-02-16T06:21:36;98058.44;;;5.36;54.47
17209;BME280;8720;48.488;9.202;2023-02-16T06:24:05;98057.56;;;5.37;54.80
17209;BME280;8720;48.488;9.202;2023-02-16T06:26:33;98056.66;;;5.32;54.47
17209;BME280;8720;48.488;9.202;2023-02-16T06:29:01;98066.25;;;5.42;54.58
17209;BME280;8720;48.488;9.202;2023-02-16T06:31:28;98073.22;;;5.44;54.77
17209;BME280;8720;48.488;9.202;2023-02-16T06:33:55;98064.63;;;5.47;54.69
17209;BME280;8720;48.488;9.202;2023-02-16T06:36:24;98067.22;;;5.48;54.72
17209;BME280;8720;48.488;9.202;2023-02-16T06:38:52;98070.72;;;5.50;54.58
17209;BME280;8720;48.488;9.202;2023-02-16T06:41:19;98073.31;;;5.53;54.81
17209;BME280;8720;48.488;9.202;2023-02-16T06:43:58;98064.88;;;5.67;54.81
17209;BME280;8720;48.488;9.202;2023-02-16T06:46:25;98069.25;;;5.71;54.37
17209;BME280;8720;48.488;9.202;2023-02-16T06:48:53;98071.84;;;5.72;54.26
17209;BME280;8720;48.488;9.202;2023-02-16T06:51:20;98070.97;;;5.72;54.50
17209;BME280;8720;48.488;9.202;2023-02-16T06:53:49;98062.34;;;5.73;54.56
17209;BME280;8720;48.488;9.202;2023-02-16T06:56:16;98065.84;;;5.76;54.46
17209;BME280;8720;48.488;9.202;2023-02-16T06:58:44;98068.44;;;5.78;54.51
17209;BME280;8720;48.488;9.202;2023-02-16T07:01:11;98073.69;;;5.82;54.35
17209;BME280;8720;48.488;9.202;2023-02-16T07:03:38;98075.47;;;5.85;54.45
17209;BME280;8720;48.488;9.202;2023-02-16T07:06:06;98074.53;;;5.83;54.46
17209;BME280;8720;48.488;9.202;2023-02-16T07:08:34;98077.22;;;5.84;54.21
17209;BME280;8720;48.488;9.202;2023-02-16T07:11:03;98081.53;;;5.85;54.36
17209;BME280;8720;48.488;9.202;2023-02-16T07:13:30;98078.94;;;5.84;54.33
17209;BME280;8720;48.488;9.202;2023-02-16T07:16:01;98075.47;;;5.85;54.19
17209;BME280;8720;48.488;9.202;2023-02-16T07:18:29;98085.84;;;5.85;54.21
17209;BME280;8720;48.488;9.202;2023-02-16T07:20:56;98092.81;;;5.87;54.17
17209;BME280;8720;48.488;9.202;2023-02-16T07:23:24;98089.41;;;5.90;54.52
17209;BME280;8720;48.488;9.202;2023-02-16T07:25:51;98086.81;;;5.93;54.51
17209;BME280;8720;48.488;9.202;2023-02-16T07:28:20;98085.13;;;5.96;54.65
17209;BME280;8720;48.488;9.202;2023-02-16T07:30:47;98093.88;;;6.04;54.77
17209;BME280;8720;48.488;9.202;2023-02-16T07:33:16;98090.50;;;6.13;54.96
17209;BME280;8720;48.488;9.202;2023-02-16T07:35:44;98087.19;;;6.29;55.24
17209;BME280;8720;48.488;9.202;2023-02-16T07:38:11;98085.66;;;6.48;55.60
17209;BME280;8720;48.488;9.202;2023-02-16T07:40:39;98072.78;;;6.63;55.89
17209;BME280;8720;48.488;9.202;2023-02-16T07:43:07;98084.28;;;6.92;55.84
17209;BME280;8720;48.488;9.202;2023-02-16T07:45:36;98086.16;;;7.12;55.78
17209;BME280;8720;48.488;9.202;2023-02-16T07:48:04;98087.13;;;7.31;55.38
17209;BME280;8720;48.488;9.202;2023-02-16T07:50:31;98094.16;;;7.50;55.35
17209;BME280;8720;48.488;9.202;2023-02-16T07:53:00;98089.91;;;7.64;55.02
17209;BME280;8720;48.488;9.202;2023-02-16T07:55:28;98096.94;;;7.83;55.13
17209;BME280;8720;48.488;9.202;2023-02-16T07:57:56;98089.16;;;7.98;54.81
17209;BME280;8720;48.488;9.202;2023-02-16T08:00:23;98090.97;;;8.13;55.03
17209;BME280;8720;48.488;9.202;2023-02-16T08:02:52;98099.75;;;8.27;54.75
17209;BME280;8720;48.488;9.202;2023-02-16T08:05:19;98088.47;;;8.40;54.73
17209;BME280;8720;48.488;9.202;2023-02-16T08:07:46;98096.31;;;8.54;54.55
17209;BME280;8720;48.488;9.202;2023-02-16T08:10:14;98093.72;;;8.66;54.56
17209;BME280;8720;48.488;9.202;2023-02-16T08:12:43;98089.34;;;8.77;54.28
17209;BME280;8720;48.488;9.202;2023-02-16T08:15:10;98094.59;;;8.89;54.24
17209;BME280;8720;48.488;9.202;2023-02-16T08:17:38;98106.75;;;9.00;54.20
17209;BME280;8720;48.488;9.202;2023-02-16T08:20:08;98100.63;;;9.10;53.88
17209;BME280;8720;48.488;9.202;2023-02-16T08:22:36;98107.59;;;9.18;53.75
17209;BME280;8720;48.488;9.202;2023-02-16T08:25:03;98099.75;;;9.25;53.67
17209;BME280;8720;48.488;9.202;2023-02-16T08:27:31;98101.50;;;9.31;53.53
17209;BME280;8720;48.488;9.202;2023-02-16T08:29:58;98099.75;;;9.34;53.54
17209;BME280;8720;48.488;9.202;2023-02-16T08:32:26;98096.25;;;9.37;53.30
17209;BME280;8720;48.488;9.202;2023-02-16T08:34:53;98103.19;;;9.44;53.24
17209;BME280;8720;48.488;9.202;2023-02-16T08:37:23;98103.19;;;9.45;53.08
17209;BME280;8720;48.488;9.202;2023-02-16T08:39:51;98098.84;;;9.46;52.83
17209;BME280;8720;48.488;9.202;2023-02-16T08:42:19;98104.03;;;9.49;52.91
17209;BME280;8720;48.488;9.202;2023-02-16T08:44:46;98109.28;;;9.50;53.02
17209;BME280;8720;48.488;9.202;2023-02-16T08:47:13;98105.81;;;9.54;52.94
17209;BME280;8720;48.488;9.202;2023-02-16T08:49:42;98107.53;;;9.60;52.84
17209;BME280;8720;48.488;9.202;2023-02-16T08:52:09;98065.78;;;9.42;52.82
17209;BME280;8720;48.488;9.202;2023-02-16T08:54:38;98116.16;;;9.77;52.83
17209;BME280;8720;48.488;9.202;2023-02-16T08:57:06;98107.44;;;9.84;52.82
17209;BME280;8720;48.488;9.202;2023-02-16T08:59:34;98116.09;;;9.93;52.98
17209;BME280;8720;48.488;9.202;2023-02-16T09:02:02;98104.75;;;9.99;52.70
17209;BME280;8720;48.488;9.202;2023-02-16T09:04:30;98109.09;;;10.12;52.71
17209;BME280;8720;48.488;9.202;2023-02-16T09:06:58;98103.81;;;10.21;52.54
17209;BME280;8720;48.488;9.202;2023-02-16T09:09:26;98097.66;;;10.31;52.72
17209;BME280;8720;48.488;9.202;2023-02-16T09:11:55;98091.50;;;10.41;52.51
17209;BME280;8720;48.488;9.202;2023-02-16T09:14:23;98094.91;;;10.52;52.53
17209;BME280;8720;48.488;9.202;2023-02-16T09:16:51;98086.13;;;10.62;52.46
17209;BME280;8720;48.488;9.202;2023-02-16T09:19:20;98094.75;;;10.70;52.24
17209;BME280;8720;48.488;9.202;2023-02-16T09:21:48;98093.88;;;10.76;52.31
17209;BME280;8720;48.488;9.202;2023-02-16T09:24:17;98084.25;;;10.79;52.20
17209;BME280;8720;48.488;9.202;2023-02-16T09:26:45;98075.50;;;10.83;52.15
17209;BME280;8720;48.488;9.202;2023-02-16T09:29:14;98082.44;;;10.89;52.06
17209;BME280;8720;48.488;9.202;2023-02-16T09:31:42;98081.50;;;10.94;52.08
17209;BME280;8720;48.488;9.202;2023-02-16T09:34:16;98085.84;;;10.98;51.94
17209;BME280;8720;48.488;9.202;2023-02-16T09:36:44;98082.25;;;11.10;52.12
17209;BME280;8720;48.488;9.202;2023-02-16T09:39:12;98082.13;;;11.21;52.01
17209;BME280;8720;48.488;9.202;2023-02-16T09:42:08;98068.06;;;11.31;51.89
17209;BME280;8720;48.488;9.202;2023-02-16T09:44:53;98066.19;;;11.43;51.96
17209;BME280;8720;48.488;9.202;2023-02-16T09:47:28;98070.44;;;11.55;51.74
17209;BME280;8720;48.488;9.202;2023-02-16T09:49:58;98078.16;;;11.67;51.57
17209;BME280;8720;48.488;9.202;2023-02-16T09:52:35;98072.78;;;11.79;51.65
17209;BME280;8720;48.488;9.202;2023-02-16T09:55:10;98077.91;;;11.91;51.52
17209;BME280;8720;48.488;9.202;2023-02-16T09:58:05;98076.06;;;11.99;51.60
17209;BME280;8720;48.488;9.202;2023-02-16T10:00:50;98077.66;;;12.11;51.43
17209;BME280;8720;48.488;9.202;2023-02-16T10:03:41;98073.13;;;12.22;51.43
17209;BME280;8720;48.488;9.202;2023-02-16T10:06:40;98074.72;;;12.33;51.36
17209;BME280;8720;48.488;9.202;2023-02-16T10:09:13;98061.41;;;12.44;50.60
17209;BME280;8720;48.488;9.202;2023-02-16T10:11:50;98054.28;;;12.55;50.55
17209;BME280;8720;48.488;9.202;2023-02-16T10:14:30;98060.09;;;12.73;50.73
17209;BME280;8720;48.488;9.202;2023-02-16T10:17:12;98061.66;;;12.85;50.57
17209;BME280;8720;48.488;9.202;2023-02-16T10:19:51;98062.28;;;13.01;50.44
17209;BME280;8720;48.488;9.202;2023-02-16T10:22:28;98055.91;;;13.17;50.31
17209;BME280;8720;48.488;9.202;2023-02-16T10:25:02;98057.38;;;13.31;50.28
17209;BME280;8720;48.488;9.202;2023-02-16T10:27:37;98057.97;;;13.47;50.00
17209;BME280;8720;48.488;9.202;2023-02-16T10:30:13;98044.47;;;13.63;49.74
17209;BME280;8720;48.488;9.202;2023-02-16T10:32:54;98050.31;;;13.79;49.90
17209;BME280;8720;48.488;9.202;2023-02-16T10:35:31;98035.25;;;13.87;49.61
17209;BME280;8720;48.488;9.202;2023-02-16T10:38:13;98050.53;;;14.11;49.35
17209;BME280;8720;48.488;9.202;2023-02-16T10:40:54;98050.19;;;14.26;49.33
17209;BME280;8720;48.488;9.202;2023-02-16T10:43:40;98037.59;;;14.40;49.36
17209;BME280;8720;48.488;9.202;2023-02-16T10:46:13;98041.63;;;14.56;49.04
17209;BME280;8720;48.488;9.202;2023-02-16T10:48:44;98039.53;;;14.71;48.99
17209;BME280;8720;48.488;9.202;2023-02-16T10:51:15;98032.16;;;14.85;48.78
17209;BME280;8720;48.488;9.202;2023-02-16T10:53:48;98037.06;;;15.00;48.42
17209;BME280;8720;48.488;9.202;2023-02-16T10:56:40;98033.34;;;15.07;48.71
17209;BME280;8720;48.488;9.202;2023-02-16T10:59:15;98037.19;;;15.27;48.50
17209;BME280;8720;48.488;9.202;2023-02-16T11:01:47;98032.41;;;15.43;47.90
17209;BME280;8720;48.488;9.202;2023-02-16T11:04:43;98039.88;;;15.60;48.27
17209;BME280;8720;48.488;9.202;2023-02-16T11:07:14;98028.03;;;15.74;47.61
17209;BME280;8720;48.488;9.202;2023-02-16T11:09:45;98025.88;;;15.88;47.42
17209;BME280;8720;48.488;9.202;2023-02-16T11:12:27;98028.94;;;16.04;47.23
17209;BME280;8720;48.488;9.202;2023-02-16T11:14:59;98011.16;;;16.09;47.33
17209;BME280;8720;48.488;9.202;2023-02-16T11:17:31;98015.72;;;16.33;46.48
17209;BME280;8720;48.488;9.202;2023-02-16T11:20:07;98021.41;;;16.47;46.14
17209;BME280;8720;48.488;9.202;2023-02-16T11:22:37;98023.66;;;16.61;46.09
17209;BME280;8720;48.488;9.202;2023-02-16T11:25:23;98020.63;;;16.73;46.16
17209;BME280;8720;48.488;9.202;2023-02-16T11:27:55;98015.00;;;16.83;45.89
17209;BME280;8720;48.488;9.202;2023-02-16T11:30:32;98011.09;;;16.95;45.32
17209;BME280;8720;48.488;9.202;2023-02-16T11:33:03;98012.47;;;17.06;45.07
17209;BME280;8720;48.488;9.202;2023-02-16T11:35:41;98005.91;;;17.18;45.08
17209;BME280;8720;48.488;9.202;2023-02-16T11:38:30;98005.50;;;17.28;44.94
17209;BME280;8720;48.488;9.202;2023-02-16T11:41:00;98001.63;;;17.39;44.41
17209;BME280;8720;48.488;9.202;2023-02-16T11:43:33;97995.06;;;17.50;43.98
17209;BME280;8720;48.488;9.202;2023-02-16T11:46:13;97995.53;;;17.61;43.31
17209;BME280;8720;48.488;9.202;2023-02-16T11:48:43;97990.72;;;17.72;43.54
17209;BME280;8720;48.488;9.202;2023-02-16T11:51:15;97986.06;;;17.79;43.08
17209;BME280;8720;48.488;9.202;2023-02-16T11:54:02;97981.97;;;17.93;42.88
17209;BME280;8720;48.488;9.202;2023-02-16T11:56:31;97982.56;;;18.01;42.51
17209;BME280;8720;48.488;9.202;2023-02-16T11:59:17;97977.81;;;18.09;43.04
17209;BME280;8720;48.488;9.202;2023-02-16T12:02:19;97980.97;;;18.19;42.77
17209;BME280;8720;48.488;9.202;2023-02-16T12:05:07;97976.19;;;18.29;42.47
17209;BME280;8720;48.488;9.202;2023-02-16T12:07:47;97972.44;;;18.34;42.01
17209;BME280;8720;48.488;9.202;2023-02-16T12:10:27;97966.00;;;18.41;42.00
17209;BME280;8720;48.488;9.202;2023-02-16T12:13:05;97963.97;;;18.48;41.42
17209;BME280;8720;48.488;9.202;2023-02-16T12:15:45;97957.56;;;18.53;41.17
17209;BME280;8720;48.488;9.202;2023-02-16T12:18:27;97955.53;;;18.60;41.22
17209;BME280;8720;48.488;9.202;2023-02-16T12:21:10;97952.63;;;18.66;41.03
17209;BME280;8720;48.488;9.202;2023-02-16T12:24:01;97944.00;;;18.61;40.54
17209;BME280;8720;48.488;9.202;2023-02-16T12:26:44;97942.75;;;18.69;40.67
17209;BME280;8720;48.488;9.202;2023-02-16T12:29:30;97941.78;;;18.72;40.83
17209;BME280;8720;48.488;9.202;2023-02-16T12:35:30;97933.50;;;18.79;41.42
17209;BME280;8720;48.488;9.202;2023-02-16T12:38:18;97947.34;;;18.86;40.67
17209;BME280;8720;48.488;9.202;2023-02-16T12:41:08;97931.25;;;18.90;40.95
17209;BME280;8720;48.488;9.202;2023-02-16T12:43:44;97926.50;;;18.98;40.39
17209;BME280;8720;48.488;9.202;2023-02-16T12:46:17;97934.19;;;19.04;39.98
17209;BME280;8720;48.488;9.202;2023-02-16T12:48:52;97930.34;;;19.12;39.73
17209;BME280;8720;48.488;9.202;2023-02-16T12:51:29;97929.28;;;19.16;39.20
17209;BME280;8720;48.488;9.202;2023-02-16T12:54:03;97911.44;;;19.19;39.24
17209;BME280;8720;48.488;9.202;2023-02-16T12:56:41;97913.88;;;19.24;39.15
17209;BME280;8720;48.488;9.202;2023-02-16T12:59:17;97905.72;;;19.28;38.97
17209;BME280;8720;48.488;9.202;2023-02-16T13:01:51;97907.22;;;19.35;38.93
17209;BME280;8720;48.488;9.202;2023-02-16T13:04:37;97899.84;;;19.42;39.10
17209;BME280;8720;48.488;9.202;2023-02-16T13:07:13;97899.41;;;19.51;38.37
17209;BME280;8720;48.488;9.202;2023-02-16T13:09:54;97890.31;;;19.56;38.43
17209;BME280;8720;48.488;9.202;2023-02-16T13:12:33;97876.09;;;19.57;37.78
17209;BME280;8720;48.488;9.202;2023-02-16T13:15:10;97887.16;;;19.67;38.11
17209;BME280;8720;48.488;9.202;2023-02-16T13:17:44;97878.97;;;19.71;38.10
17209;BME280;8720;48.488;9.202;2023-02-16T13:20:15;97883.13;;;19.77;37.75
17209;BME280;8720;48.488;9.202;2023-02-16T13:23:24;97873.38;;;19.77;38.89
17209;BME280;8720;48.488;9.202;2023-02-16T13:26:34;97879.91;;;19.89;39.40
17209;BME280;8720;48.488;9.202;2023-02-16T13:29:50;97878.75;;;19.94;39.39
17209;BME280;8720;48.488;9.202;2023-02-16T13:32:46;97861.75;;;19.99;38.68
17209;BME280;8720;48.488;9.202;2023-02-16T13:35:41;97868.28;;;20.10;38.81
17209;BME280;8720;48.488;9.202;2023-02-16T13:38:48;97864.44;;;20.16;38.60
17209;BME280;8720;48.488;9.202;2023-02-16T13:41:43;97866.25;;;20.15;38.34
17209;BME280;8720;48.488;9.202;2023-02-16T13:44:19;97867.03;;;20.17;38.07
17209;BME280;8720;48.488;9.202;2023-02-16T13:46:53;97868.72;;;20.20;37.30
17209;BME280;8720;48.488;9.202;2023-02-16T13:49:31;97876.56;;;20.23;37.42
17209;BME280;8720;48.488;9.202;2023-02-16T13:52:02;97870.38;;;20.22;37.36
17209;BME280;8720;48.488;9.202;2023-02-16T13:54:32;97874.53;;;20.28;37.31
17209;BME280;8720;48.488;9.202;2023-02-16T13:57:01;97873.56;;;20.29;36.98
17209;BME280;8720;48.488;9.202;2023-02-16T13:59:48;97870.00;;;20.30;37.51
17209;BME280;8720;48.488;9.202;2023-02-16T14:02:58;97867.47;;;20.27;38.09